AirNav   SIMCOM
 
 897 users online  

N63 Meadow Brook Field Airport
Walnut Cove, North Carolina, USA

GOING TO WALNUT COVE?


FAA INFORMATION EFFECTIVE 09 NOVEMBER 2017

Location

FAA Identifier: N63
Lat/Long: 36-18-05.4940N / 080-08-54.1650W
36-18.091567N / 080-08.902750W
36.3015261 / -80.1483792
(estimated)
Elevation: 631 ft. / 192.3 m (surveyed)
Variation: 06W (1980)
From city: 1 mile NW of WALNUT COVE, NC
Time zone: UTC -5 (UTC -4 during Daylight Saving Time)
Zip code: 27052

Airport Operations

Airport use: Open to the public
Activation date: 09/1966
Control tower: no
ARTCC: ATLANTA CENTER
FSS: RALEIGH FLIGHT SERVICE STATION
NOTAMs facility: RDU (NOTAM-D service available)
Attendance: IRREGULAR
Wind indicator: yes
Segmented circle: no
Lights: ACTVT LIRL RY 16/34 - CTAF.

Airport Communications

CTAF/UNICOM: 123.0
GREENSBORO APPROACH: 124.35
GREENSBORO DEPARTURE: 124.35
WX ASOS at INT (11 nm S): PHONE 336-661-3096
WX ASOS at GSO (16 nm SE): PHONE 336-393-0168
WX AWOS-3 at SIF (17 nm NE): 119.775 (336-573-3677)

Nearby radio navigation aids

VOR radial/distance  VOR name  Freq  Var
GSOr335/17.5GREENSBORO VORTAC116.2003W
LIBr322/39.2LIBERTY VORTAC113.0003W

 
NDB name  Hdg/Dist  Freq  Var  ID
REENO011/13.931707WIN .. -.
SLAMMER263/19.242307WSIF ... .. ..-.
ZEPHYR099/28.032608WZEF --.. . ..-.

Airport Services

Airframe service: NONE
Powerplant service: NONE

Runway Information

Runway 16/34

Dimensions: 2725 x 32 ft. / 831 x 10 m
Surface: asphalt, in good condition
Runway edge lights: non-standard
NSTD LIRL; LGTS 30 FT EITHER SIDE OF ASPH ALONG OLD TURF RY. NSTD THR LGTS WITH GREEN, RED, CLEAR AND BI-DIRECTIONAL LENS.
Runway edge markings: RY MRKNG SMALLER THAN NORMAL AND FADED; CNTRLN NSTND.
RUNWAY 16  RUNWAY 34
Latitude: 36-18.302500N36-17.880500N
Longitude: 080-08.997667W080-08.807833W
Elevation: 631.0 ft.631.0 ft.
Traffic pattern: leftleft
Runway heading: 166 magnetic, 160 true346 magnetic, 340 true
Markings: NSTD, in fair conditionNSTD, in fair condition
Touchdown point: yes, no lightsyes, no lights
Obstructions: 103 ft. trees, 847 ft. from runway, 140 ft. right of centerline, 6:1 slope to clear
10 FT TREES 184 FT FM THLD OFFSET 95 FT RIGHT.
22 ft. trees, 381 ft. from runway, 134 ft. right of centerline, 8:1 slope to clear
RWY 34 +3 FT FENCE 30 FT FM THR BOTH SIDES OF CNTRLN.

Airport Ownership and Management from official FAA records

Ownership: Privately-owned
Owner: CHARLES E. LASLEY
1060 AIRPORT ROAD
WALNUT COVE, NC 27052
Phone 336-591-7881
Manager: CHARLES E. LASLEY
1060 AIRPORT ROAD
WALNUT COVE, NC 27052
Phone 336-403-1796

Airport Operational Statistics

Aircraft based on the field: 10
Single engine airplanes: 4
Multi engine airplanes: 6
    
Aircraft operations: avg 33/day *
99% local general aviation
<1% air taxi
<1% transient general aviation
* for 12-month period ending 27 May 2016

Additional Remarks

HIGH TERRAIN IN ALL QUADRANTS.
+50 FT TREES WITHIN 125 FT OF CNTRLN ON W SIDE OF RY. +65 FT TREES WITHIN 110 FT OF CNTRLN E OF RY.
FENCING IN THE CLEAR ZONE RYS 16 & 34.
+8 FT DROPOFF AER RY 16.
ARPT CLSD TO TSNTS EXCP PPR CALL 336-403-1796.
DO NOT LAND ON GRASS ADJACENT TO RWY-DEEP DITCHES
NO TRANSIENT STOPPING TRAFFIC- WILL ALLOW TOUCH AND GO

Instrument Procedures

NOTE: All procedures below are presented as PDF files. If you need a reader for these files, you should download the free Adobe Reader.

NOT FOR NAVIGATION. Please procure official charts for flight.
FAA instrument procedures published for use between 9 November 2017 at 0901Z and 7 December 2017 at 0900Z.

 
IAPs - Instrument Approach Procedures
VOR/DME OR GPS RWY 34   download (168KB)
NOTE: Special Take-Off Minimums/Departure Procedures apply   download (141KB)

Other nearby airports with instrument procedures:

KINT - Smith Reynolds Airport (11 nm S)
KGSO - Piedmont Triad International Airport (16 nm SE)
KSIF - Rockingham County NC Shiloh Airport (17 nm NE)
KMTV - Blue Ridge Airport (21 nm N)
KMWK - Mount Airy/Surry County Airport (22 nm NW)
 
Loc | Ops | Rwys | IFR | FBO | Links
Com | Nav | Svcs | Stats | Notes


 
Area around N63 (Meadow Brook Field Airport)
 
Road maps at: MapQuest Bing Google
 
Aerial photo
WARNING: Photo may not be current or correct
Aerial photo of N63 (Meadow Brook Field Airport)
Do you have a better or more recent aerial photo of Meadow Brook Field Airport that you would like to share? If so, please send us your photo.

 
Sectional chart

 
Airport distance calculator
Flying to Meadow Brook Field Airport? Find the distance to fly.

From to N63

Sunrise and sunset
Times for 19-Nov-2017
 Local
(UTC-5)
 Zulu
(UTC)
Morning civil twilight06:3511:35
Sunrise07:0312:03
Sunset17:0922:09
Evening civil twilight17:3722:37

Current date and time
Zulu (UTC)  20-Nov-2017 02:40:11
Local (UTC-5)  19-Nov-2017 21:40:11
 
METAR
KINT 
11nm S 
200154Z 00000KT 10SM CLR 04/M05 A3004 RMK AO2 SLP173 T00391050 $
KGSO 
15nm SE 
200154Z 31007KT 10SM CLR 03/M04 A3002 RMK AO2 SLP168 T00281044 $
KSIF 
17nm NE 
200205Z AUTO 00000KT 10SM CLR M01/M05 A3004 RMK AO2 T10061049
KMTV 
20nm N 
200215Z AUTO 00000KT 10SM CLR 00/M05 A3005 RMK AO2 T10031050
TAF
KINT 
11nm S 
191733Z 1918/2018 31015G25KT P6SM SKC FM192300 30003KT P6SM SKC
KGSO 
15nm SE 
191733Z 1918/2018 32015G25KT P6SM SKC FM192300 30005KT P6SM SKC
NOTAMs
Click for the latest NOTAMs
NOTAMs are issued by the DoD/FAA and will open in a separate window not controlled by AirNav.

 

 
 

Would you like to see your business listed on this page?

 If your business provides an interesting product or service to pilots, flight crews, aircraft, or users of the Meadow Brook Field Airport, you should consider listing it here.  To start the listing process, click on the button below
 
Add a business
 

Other Pages about Meadow Brook Field Airport

Update a link
 
Copyright © AirNav, LLC. All rights reserved. Privacy Policy  Contact